sensor_id;sensor_type;location;lat;lon;timestamp;P1;durP1;ratioP1;P2;durP2;ratioP2
77170;SDS011;66144;50.020;14.422;2023-02-01T00:02:11;2.47;;;1.20;;
77170;SDS011;66144;50.020;14.422;2023-02-01T00:07:01;2.10;;;1.17;;
77170;SDS011;66144;50.020;14.422;2023-02-01T00:11:52;3.23;;;1.63;;
77170;SDS011;66144;50.020;14.422;2023-02-01T00:14:18;3.28;;;1.33;;
77170;SDS011;66144;50.020;14.422;2023-02-01T00:19:12;3.03;;;1.57;;
77170;SDS011;66144;50.020;14.422;2023-02-01T00:21:39;2.55;;;1.40;;
77170;SDS011;66144;50.020;14.422;2023-02-01T00:29:01;2.97;;;1.23;;
77170;SDS011;66144;50.020;14.422;2023-02-01T00:31:28;3.25;;;1.70;;
77170;SDS011;66144;50.020;14.422;2023-02-01T00:36:19;2.40;;;1.33;;
77170;SDS011;66144;50.020;14.422;2023-02-01T00:41:11;3.73;;;1.40;;
77170;SDS011;66144;50.020;14.422;2023-02-01T00:43:41;3.22;;;1.48;;
77170;SDS011;66144;50.020;14.422;2023-02-01T00:46:07;2.70;;;1.30;;
77170;SDS011;66144;50.020;14.422;2023-02-01T00:50:59;2.58;;;1.48;;
77170;SDS011;66144;50.020;14.422;2023-02-01T00:53:35;3.67;;;1.58;;
77170;SDS011;66144;50.020;14.422;2023-02-01T00:56:01;2.58;;;1.58;;
77170;SDS011;66144;50.020;14.422;2023-02-01T01:01:03;2.92;;;1.80;;
77170;SDS011;66144;50.020;14.422;2023-02-01T01:03:29;3.83;;;1.90;;
77170;SDS011;66144;50.020;14.422;2023-02-01T01:05:58;5.28;;;1.63;;
77170;SDS011;66144;50.020;14.422;2023-02-01T01:08:24;2.72;;;1.63;;
77170;SDS011;66144;50.020;14.422;2023-02-01T01:13:15;2.93;;;1.50;;
77170;SDS011;66144;50.020;14.422;2023-02-01T01:15:40;2.75;;;1.48;;
77170;SDS011;66144;50.020;14.422;2023-02-01T01:18:07;3.53;;;1.83;;
77170;SDS011;66144;50.020;14.422;2023-02-01T01:20:36;3.70;;;1.58;;
77170;SDS011;66144;50.020;14.422;2023-02-01T01:23:04;3.10;;;1.58;;
77170;SDS011;66144;50.020;14.422;2023-02-01T01:27:55;3.35;;;1.90;;
77170;SDS011;66144;50.020;14.422;2023-02-01T01:32:46;4.47;;;1.65;;
77170;SDS011;66144;50.020;14.422;2023-02-01T01:37:37;2.85;;;1.67;;
77170;SDS011;66144;50.020;14.422;2023-02-01T01:42:29;3.30;;;1.73;;
77170;SDS011;66144;50.020;14.422;2023-02-01T01:47:30;4.13;;;1.70;;
77170;SDS011;66144;50.020;14.422;2023-02-01T01:50:01;2.72;;;1.50;;
77170;SDS011;66144;50.020;14.422;2023-02-01T01:52:28;3.90;;;1.42;;
77170;SDS011;66144;50.020;14.422;2023-02-01T01:57:29;6.85;;;2.35;;
77170;SDS011;66144;50.020;14.422;2023-02-01T02:02:41;2.38;;;1.42;;
77170;SDS011;66144;50.020;14.422;2023-02-01T02:05:10;3.17;;;1.63;;
77170;SDS011;66144;50.020;14.422;2023-02-01T02:07:39;3.40;;;1.25;;
77170;SDS011;66144;50.020;14.422;2023-02-01T02:10:09;2.25;;;1.48;;
77170;SDS011;66144;50.020;14.422;2023-02-01T02:12:39;2.20;;;1.30;;
77170;SDS011;66144;50.020;14.422;2023-02-01T02:15:07;3.83;;;1.52;;
77170;SDS011;66144;50.020;14.422;2023-02-01T02:37:42;4.20;;;1.50;;
77170;SDS011;66144;50.020;14.422;2023-02-01T02:51:25;3.50;;;1.60;;
77170;SDS011;66144;50.020;14.422;2023-02-01T02:54:17;3.97;;;1.70;;
77170;SDS011;66144;50.020;14.422;2023-02-01T02:57:06;3.38;;;1.85;;
77170;SDS011;66144;50.020;14.422;2023-02-01T02:59:52;2.65;;;1.30;;
77170;SDS011;66144;50.020;14.422;2023-02-01T03:02:39;3.38;;;1.52;;
77170;SDS011;66144;50.020;14.422;2023-02-01T03:05:23;2.45;;;1.40;;
77170;SDS011;66144;50.020;14.422;2023-02-01T03:10:37;2.63;;;1.30;;
77170;SDS011;66144;50.020;14.422;2023-02-01T03:24:16;2.35;;;1.48;;
77170;SDS011;66144;50.020;14.422;2023-02-01T03:26:50;2.15;;;1.33;;
77170;SDS011;66144;50.020;14.422;2023-02-01T03:29:24;2.58;;;1.40;;
77170;SDS011;66144;50.020;14.422;2023-02-01T03:31:54;4.80;;;1.45;;
77170;SDS011;66144;50.020;14.422;2023-02-01T03:36:49;2.92;;;1.60;;
77170;SDS011;66144;50.020;14.422;2023-02-01T03:39:25;3.10;;;1.90;;
77170;SDS011;66144;50.020;14.422;2023-02-01T03:41:56;3.33;;;1.83;;
77170;SDS011;66144;50.020;14.422;2023-02-01T03:44:29;2.90;;;1.55;;
77170;SDS011;66144;50.020;14.422;2023-02-01T03:47:10;3.78;;;1.73;;
77170;SDS011;66144;50.020;14.422;2023-02-01T03:49:44;3.35;;;1.92;;
77170;SDS011;66144;50.020;14.422;2023-02-01T03:52:33;3.83;;;1.92;;
77170;SDS011;66144;50.020;14.422;2023-02-01T03:55:01;3.63;;;2.00;;
77170;SDS011;66144;50.020;14.422;2023-02-01T03:57:31;4.60;;;2.33;;
77170;SDS011;66144;50.020;14.422;2023-02-01T04:00:07;5.93;;;2.90;;
77170;SDS011;66144;50.020;14.422;2023-02-01T04:02:36;7.10;;;2.38;;
77170;SDS011;66144;50.020;14.422;2023-02-01T04:07:27;5.97;;;2.80;;
77170;SDS011;66144;50.020;14.422;2023-02-01T04:12:17;4.17;;;1.80;;
77170;SDS011;66144;50.020;14.422;2023-02-01T04:17:08;3.60;;;1.80;;
77170;SDS011;66144;50.020;14.422;2023-02-01T04:19:34;3.58;;;1.92;;
77170;SDS011;66144;50.020;14.422;2023-02-01T04:24:24;5.13;;;1.73;;
77170;SDS011;66144;50.020;14.422;2023-02-01T04:29:15;3.57;;;2.10;;
77170;SDS011;66144;50.020;14.422;2023-02-01T04:34:06;4.05;;;1.92;;
77170;SDS011;66144;50.020;14.422;2023-02-01T04:36:31;6.60;;;1.92;;
77170;SDS011;66144;50.020;14.422;2023-02-01T04:38:56;4.30;;;2.38;;
77170;SDS011;66144;50.020;14.422;2023-02-01T04:43:48;5.53;;;2.33;;
77170;SDS011;66144;50.020;14.422;2023-02-01T04:46:15;5.13;;;2.10;;
77170;SDS011;66144;50.020;14.422;2023-02-01T04:51:06;4.88;;;2.55;;
77170;SDS011;66144;50.020;14.422;2023-02-01T04:55:57;5.10;;;2.87;;
77170;SDS011;66144;50.020;14.422;2023-02-01T05:00:48;5.67;;;2.60;;
77170;SDS011;66144;50.020;14.422;2023-02-01T05:03:14;5.57;;;2.78;;
77170;SDS011;66144;50.020;14.422;2023-02-01T05:08:05;4.53;;;2.05;;
77170;SDS011;66144;50.020;14.422;2023-02-01T05:12:55;6.43;;;2.63;;
77170;SDS011;66144;50.020;14.422;2023-02-01T05:15:39;5.55;;;2.90;;
77170;SDS011;66144;50.020;14.422;2023-02-01T05:20:30;7.00;;;3.20;;
77170;SDS011;66144;50.020;14.422;2023-02-01T05:25:20;4.83;;;2.90;;
77170;SDS011;66144;50.020;14.422;2023-02-01T05:30:11;4.20;;;2.40;;
77170;SDS011;66144;50.020;14.422;2023-02-01T05:35:02;4.63;;;2.27;;
77170;SDS011;66144;50.020;14.422;2023-02-01T05:39:54;4.63;;;2.28;;
77170;SDS011;66144;50.020;14.422;2023-02-01T05:44:45;5.67;;;1.67;;
77170;SDS011;66144;50.020;14.422;2023-02-01T05:49:35;2.93;;;1.33;;
77170;SDS011;66144;50.020;14.422;2023-02-01T05:54:26;2.72;;;1.15;;
77170;SDS011;66144;50.020;14.422;2023-02-01T05:59:17;2.22;;;1.38;;
77170;SDS011;66144;50.020;14.422;2023-02-01T06:04:08;3.30;;;1.37;;
77170;SDS011;66144;50.020;14.422;2023-02-01T06:06:33;2.47;;;1.40;;
77170;SDS011;66144;50.020;14.422;2023-02-01T06:11:25;4.47;;;1.90;;
77170;SDS011;66144;50.020;14.422;2023-02-01T06:16:16;5.50;;;2.38;;
77170;SDS011;66144;50.020;14.422;2023-02-01T06:21:07;4.40;;;1.63;;
77170;SDS011;66144;50.020;14.422;2023-02-01T06:23:33;3.58;;;1.35;;
77170;SDS011;66144;50.020;14.422;2023-02-01T06:28:26;3.88;;;1.67;;
77170;SDS011;66144;50.020;14.422;2023-02-01T06:30:53;4.05;;;1.60;;
77170;SDS011;66144;50.020;14.422;2023-02-01T06:35:44;4.97;;;1.60;;
77170;SDS011;66144;50.020;14.422;2023-02-01T06:38:10;2.72;;;1.20;;
77170;SDS011;66144;50.020;14.422;2023-02-01T06:40:37;5.35;;;2.05;;
77170;SDS011;66144;50.020;14.422;2023-02-01T06:43:02;4.78;;;1.83;;
77170;SDS011;66144;50.020;14.422;2023-02-01T06:47:53;6.47;;;2.00;;
77170;SDS011;66144;50.020;14.422;2023-02-01T06:52:44;3.20;;;1.80;;
77170;SDS011;66144;50.020;14.422;2023-02-01T06:57:34;7.53;;;1.93;;
77170;SDS011;66144;50.020;14.422;2023-02-01T07:00:01;5.47;;;1.92;;
77170;SDS011;66144;50.020;14.422;2023-02-01T07:02:28;6.30;;;2.30;;
77170;SDS011;66144;50.020;14.422;2023-02-01T07:07:19;4.07;;;1.90;;
77170;SDS011;66144;50.020;14.422;2023-02-01T07:09:45;4.63;;;2.22;;
77170;SDS011;66144;50.020;14.422;2023-02-01T07:12:10;4.75;;;2.30;;
77170;SDS011;66144;50.020;14.422;2023-02-01T07:17:01;5.47;;;2.20;;
77170;SDS011;66144;50.020;14.422;2023-02-01T07:19:27;5.72;;;2.90;;
77170;SDS011;66144;50.020;14.422;2023-02-01T07:24:17;4.00;;;2.73;;
77170;SDS011;66144;50.020;14.422;2023-02-01T07:29:08;6.47;;;3.03;;
77170;SDS011;66144;50.020;14.422;2023-02-01T07:31:33;9.80;;;4.30;;
77170;SDS011;66144;50.020;14.422;2023-02-01T07:33:59;7.18;;;2.90;;
77170;SDS011;66144;50.020;14.422;2023-02-01T07:36:25;7.47;;;3.22;;
77170;SDS011;66144;50.020;14.422;2023-02-01T07:38:51;7.15;;;2.97;;
77170;SDS011;66144;50.020;14.422;2023-02-01T07:43:42;6.22;;;2.58;;
77170;SDS011;66144;50.020;14.422;2023-02-01T07:48:35;6.30;;;2.78;;
77170;SDS011;66144;50.020;14.422;2023-02-01T07:53:28;5.47;;;2.03;;
77170;SDS011;66144;50.020;14.422;2023-02-01T07:55:54;4.57;;;2.45;;
77170;SDS011;66144;50.020;14.422;2023-02-01T07:58:21;6.38;;;2.47;;
77170;SDS011;66144;50.020;14.422;2023-02-01T08:00:47;4.95;;;2.30;;
77170;SDS011;66144;50.020;14.422;2023-02-01T08:03:31;5.38;;;2.35;;
77170;SDS011;66144;50.020;14.422;2023-02-01T08:05:56;4.95;;;2.58;;
77170;SDS011;66144;50.020;14.422;2023-02-01T08:08:22;6.80;;;2.55;;
77170;SDS011;66144;50.020;14.422;2023-02-01T08:10:48;4.70;;;2.45;;
77170;SDS011;66144;50.020;14.422;2023-02-01T08:13:13;4.60;;;2.10;;
77170;SDS011;66144;50.020;14.422;2023-02-01T08:18:04;5.10;;;2.40;;
77170;SDS011;66144;50.020;14.422;2023-02-01T08:20:30;4.57;;;2.67;;
77170;SDS011;66144;50.020;14.422;2023-02-01T08:22:55;4.60;;;2.60;;
77170;SDS011;66144;50.020;14.422;2023-02-01T08:27:47;4.22;;;1.77;;
77170;SDS011;66144;50.020;14.422;2023-02-01T08:30:12;4.22;;;2.33;;
77170;SDS011;66144;50.020;14.422;2023-02-01T08:32:38;5.03;;;2.63;;
77170;SDS011;66144;50.020;14.422;2023-02-01T08:35:04;4.25;;;1.77;;
77170;SDS011;66144;50.020;14.422;2023-02-01T08:37:30;3.83;;;1.67;;
77170;SDS011;66144;50.020;14.422;2023-02-01T08:39:56;3.60;;;1.55;;
77170;SDS011;66144;50.020;14.422;2023-02-01T08:42:21;5.35;;;2.00;;
77170;SDS011;66144;50.020;14.422;2023-02-01T08:45:05;4.70;;;2.05;;
77170;SDS011;66144;50.020;14.422;2023-02-01T08:47:32;5.28;;;2.22;;
77170;SDS011;66144;50.020;14.422;2023-02-01T08:49:58;5.15;;;2.10;;
77170;SDS011;66144;50.020;14.422;2023-02-01T08:52:23;6.35;;;2.58;;
77170;SDS011;66144;50.020;14.422;2023-02-01T08:54:49;5.70;;;1.80;;
77170;SDS011;66144;50.020;14.422;2023-02-01T08:57:15;5.15;;;1.92;;
77170;SDS011;66144;50.020;14.422;2023-02-01T08:59:40;4.20;;;2.20;;
77170;SDS011;66144;50.020;14.422;2023-02-01T09:02:07;2.97;;;1.75;;
77170;SDS011;66144;50.020;14.422;2023-02-01T09:04:36;5.53;;;1.80;;
77170;SDS011;66144;50.020;14.422;2023-02-01T09:07:02;4.13;;;1.67;;
77170;SDS011;66144;50.020;14.422;2023-02-01T09:09:27;5.55;;;1.90;;
77170;SDS011;66144;50.020;14.422;2023-02-01T09:11:53;3.60;;;1.90;;
77170;SDS011;66144;50.020;14.422;2023-02-01T09:14:18;3.00;;;1.40;;
77170;SDS011;66144;50.020;14.422;2023-02-01T09:16:43;6.22;;;2.03;;
77170;SDS011;66144;50.020;14.422;2023-02-01T09:19:09;4.93;;;1.58;;
77170;SDS011;66144;50.020;14.422;2023-02-01T09:21:34;4.72;;;2.10;;
77170;SDS011;66144;50.020;14.422;2023-02-01T09:24:00;5.03;;;1.83;;
77170;SDS011;66144;50.020;14.422;2023-02-01T09:28:51;4.68;;;1.77;;
77170;SDS011;66144;50.020;14.422;2023-02-01T09:31:16;3.45;;;1.80;;
77170;SDS011;66144;50.020;14.422;2023-02-01T09:33:42;4.82;;;2.25;;
77170;SDS011;66144;50.020;14.422;2023-02-01T09:36:07;4.93;;;1.63;;
77170;SDS011;66144;50.020;14.422;2023-02-01T09:38:33;3.80;;;1.75;;
77170;SDS011;66144;50.020;14.422;2023-02-01T09:40:58;5.20;;;1.80;;
77170;SDS011;66144;50.020;14.422;2023-02-01T09:46:28;3.50;;;1.92;;
77170;SDS011;66144;50.020;14.422;2023-02-01T09:48:57;4.18;;;1.65;;
77170;SDS011;66144;50.020;14.422;2023-02-01T09:51:31;4.15;;;1.80;;
77170;SDS011;66144;50.020;14.422;2023-02-01T09:54:04;5.32;;;2.00;;
77170;SDS011;66144;50.020;14.422;2023-02-01T09:56:42;4.22;;;1.70;;
77170;SDS011;66144;50.020;14.422;2023-02-01T10:01:47;5.15;;;1.73;;
77170;SDS011;66144;50.020;14.422;2023-02-01T10:04:13;6.43;;;1.80;;
77170;SDS011;66144;50.020;14.422;2023-02-01T10:22:47;3.03;;;1.45;;
77170;SDS011;66144;50.020;14.422;2023-02-01T10:25:18;5.40;;;1.73;;
77170;SDS011;66144;50.020;14.422;2023-02-01T10:27:51;4.38;;;1.67;;
77170;SDS011;66144;50.020;14.422;2023-02-01T10:30:23;4.60;;;1.92;;
77170;SDS011;66144;50.020;14.422;2023-02-01T10:32:56;9.27;;;2.10;;
77170;SDS011;66144;50.020;14.422;2023-02-01T10:35:45;6.05;;;1.90;;
77170;SDS011;66144;50.020;14.422;2023-02-01T10:38:15;4.07;;;1.55;;
77170;SDS011;66144;50.020;14.422;2023-02-01T10:40:47;5.07;;;1.70;;
77170;SDS011;66144;50.020;14.422;2023-02-01T10:43:14;3.28;;;1.63;;
77170;SDS011;66144;50.020;14.422;2023-02-01T10:45:39;5.47;;;1.77;;
77170;SDS011;66144;50.020;14.422;2023-02-01T10:48:07;4.57;;;1.60;;
77170;SDS011;66144;50.020;14.422;2023-02-01T10:53:46;5.85;;;2.28;;
77170;SDS011;66144;50.020;14.422;2023-02-01T10:56:14;5.00;;;1.70;;
77170;SDS011;66144;50.020;14.422;2023-02-01T10:58:44;5.15;;;1.90;;
77170;SDS011;66144;50.020;14.422;2023-02-01T11:03:44;4.75;;;1.77;;
77170;SDS011;66144;50.020;14.422;2023-02-01T11:08:53;4.68;;;1.38;;
77170;SDS011;66144;50.020;14.422;2023-02-01T11:11:20;6.28;;;1.90;;
77170;SDS011;66144;50.020;14.422;2023-02-01T11:13:54;5.70;;;1.67;;
77170;SDS011;66144;50.020;14.422;2023-02-01T11:16:23;4.00;;;1.52;;
77170;SDS011;66144;50.020;14.422;2023-02-01T11:19:00;4.22;;;1.80;;
77170;SDS011;66144;50.020;14.422;2023-02-01T11:21:25;5.03;;;1.75;;
77170;SDS011;66144;50.020;14.422;2023-02-01T11:23:51;4.05;;;1.50;;
77170;SDS011;66144;50.020;14.422;2023-02-01T11:26:22;6.03;;;1.63;;
77170;SDS011;66144;50.020;14.422;2023-02-01T11:28:54;6.18;;;1.70;;
77170;SDS011;66144;50.020;14.422;2023-02-01T11:31:28;4.15;;;1.42;;
77170;SDS011;66144;50.020;14.422;2023-02-01T11:34:16;6.07;;;1.70;;
77170;SDS011;66144;50.020;14.422;2023-02-01T11:36:42;6.07;;;1.60;;
77170;SDS011;66144;50.020;14.422;2023-02-01T11:39:28;4.20;;;1.70;;
77170;SDS011;66144;50.020;14.422;2023-02-01T11:41:57;6.93;;;1.70;;
77170;SDS011;66144;50.020;14.422;2023-02-01T11:44:29;2.78;;;1.20;;
77170;SDS011;66144;50.020;14.422;2023-02-01T11:47:22;4.75;;;1.63;;
77170;SDS011;66144;50.020;14.422;2023-02-01T11:49:53;4.35;;;1.70;;
77170;SDS011;66144;50.020;14.422;2023-02-01T12:00:48;2.92;;;1.38;;
77170;SDS011;66144;50.020;14.422;2023-02-01T12:11:24;4.97;;;1.70;;
77170;SDS011;66144;50.020;14.422;2023-02-01T12:16:41;3.35;;;1.20;;
77170;SDS011;66144;50.020;14.422;2023-02-01T12:19:17;3.13;;;1.13;;
77170;SDS011;66144;50.020;14.422;2023-02-01T12:22:40;3.95;;;1.52;;
77170;SDS011;66144;50.020;14.422;2023-02-01T12:25:16;4.28;;;1.27;;
77170;SDS011;66144;50.020;14.422;2023-02-01T12:36:15;4.88;;;1.55;;
77170;SDS011;66144;50.020;14.422;2023-02-01T12:50:00;3.63;;;1.60;;
77170;SDS011;66144;50.020;14.422;2023-02-01T12:52:40;4.80;;;1.08;;
77170;SDS011;66144;50.020;14.422;2023-02-01T12:55:22;3.97;;;1.40;;
77170;SDS011;66144;50.020;14.422;2023-02-01T12:57:53;4.57;;;1.80;;
77170;SDS011;66144;50.020;14.422;2023-02-01T13:00:27;3.83;;;1.60;;
77170;SDS011;66144;50.020;14.422;2023-02-01T13:05:34;6.13;;;1.85;;
77170;SDS011;66144;50.020;14.422;2023-02-01T13:08:30;4.53;;;1.77;;
77170;SDS011;66144;50.020;14.422;2023-02-01T13:11:00;1.98;;;1.23;;
77170;SDS011;66144;50.020;14.422;2023-02-01T13:13:32;4.80;;;1.30;;
77170;SDS011;66144;50.020;14.422;2023-02-01T13:18:36;4.38;;;1.60;;
77170;SDS011;66144;50.020;14.422;2023-02-01T13:21:13;3.75;;;1.55;;
77170;SDS011;66144;50.020;14.422;2023-02-01T13:23:43;5.35;;;1.20;;
77170;SDS011;66144;50.020;14.422;2023-02-01T13:28:46;2.58;;;1.35;;
77170;SDS011;66144;50.020;14.422;2023-02-01T13:39:23;1.85;;;0.98;;
77170;SDS011;66144;50.020;14.422;2023-02-01T13:42:25;3.67;;;1.38;;
77170;SDS011;66144;50.020;14.422;2023-02-01T13:45:00;2.38;;;0.80;;
77170;SDS011;66144;50.020;14.422;2023-02-01T13:47:31;3.67;;;1.38;;
77170;SDS011;66144;50.020;14.422;2023-02-01T13:50:09;2.22;;;0.95;;
77170;SDS011;66144;50.020;14.422;2023-02-01T13:52:44;2.92;;;1.15;;
77170;SDS011;66144;50.020;14.422;2023-02-01T13:57:45;2.60;;;1.10;;
77170;SDS011;66144;50.020;14.422;2023-02-01T14:23:41;3.90;;;1.50;;
77170;SDS011;66144;50.020;14.422;2023-02-01T14:26:10;4.53;;;1.40;;
77170;SDS011;66144;50.020;14.422;2023-02-01T14:33:58;3.47;;;1.35;;
77170;SDS011;66144;50.020;14.422;2023-02-01T14:39:03;4.65;;;1.73;;
77170;SDS011;66144;50.020;14.422;2023-02-01T14:49:28;5.13;;;1.77;;
77170;SDS011;66144;50.020;14.422;2023-02-01T14:51:57;5.22;;;1.25;;
77170;SDS011;66144;50.020;14.422;2023-02-01T14:54:23;2.85;;;1.17;;
77170;SDS011;66144;50.020;14.422;2023-02-01T14:56:49;5.63;;;1.70;;
77170;SDS011;66144;50.020;14.422;2023-02-01T14:59:16;3.33;;;1.40;;
77170;SDS011;66144;50.020;14.422;2023-02-01T15:01:50;4.40;;;1.30;;
77170;SDS011;66144;50.020;14.422;2023-02-01T15:04:19;4.43;;;1.42;;
77170;SDS011;66144;50.020;14.422;2023-02-01T15:06:47;3.20;;;1.27;;
77170;SDS011;66144;50.020;14.422;2023-02-01T15:09:20;4.45;;;1.05;;
77170;SDS011;66144;50.020;14.422;2023-02-01T15:14:20;5.60;;;1.50;;
77170;SDS011;66144;50.020;14.422;2023-02-01T15:16:46;5.35;;;1.40;;
77170;SDS011;66144;50.020;14.422;2023-02-01T15:19:18;3.35;;;1.25;;
77170;SDS011;66144;50.020;14.422;2023-02-01T15:21:50;4.30;;;1.33;;
77170;SDS011;66144;50.020;14.422;2023-02-01T15:24:24;4.32;;;1.38;;
77170;SDS011;66144;50.020;14.422;2023-02-01T15:26:51;4.40;;;1.50;;
77170;SDS011;66144;50.020;14.422;2023-02-01T15:29:19;3.08;;;1.20;;
77170;SDS011;66144;50.020;14.422;2023-02-01T15:31:49;4.35;;;1.80;;
77170;SDS011;66144;50.020;14.422;2023-02-01T15:34:16;3.60;;;1.40;;
77170;SDS011;66144;50.020;14.422;2023-02-01T15:36:43;6.57;;;2.08;;
77170;SDS011;66144;50.020;14.422;2023-02-01T15:42:29;5.07;;;1.52;;
77170;SDS011;66144;50.020;14.422;2023-02-01T15:44:41;4.82;;;1.80;;
77170;SDS011;66144;50.020;14.422;2023-02-01T15:47:26;5.38;;;1.65;;
77170;SDS011;66144;50.020;14.422;2023-02-01T15:49:56;4.80;;;1.70;;
77170;SDS011;66144;50.020;14.422;2023-02-01T15:54:54;3.85;;;1.60;;
77170;SDS011;66144;50.020;14.422;2023-02-01T15:57:35;5.70;;;2.15;;
77170;SDS011;66144;50.020;14.422;2023-02-01T16:00:05;4.25;;;1.40;;
77170;SDS011;66144;50.020;14.422;2023-02-01T16:02:37;5.32;;;2.17;;
77170;SDS011;66144;50.020;14.422;2023-02-01T16:10:51;10.38;;;1.80;;
77170;SDS011;66144;50.020;14.422;2023-02-01T16:13:19;6.07;;;2.38;;
77170;SDS011;66144;50.020;14.422;2023-02-01T16:15:45;5.97;;;1.67;;
77170;SDS011;66144;50.020;14.422;2023-02-01T16:18:12;6.15;;;2.30;;
77170;SDS011;66144;50.020;14.422;2023-02-01T16:20:39;4.07;;;1.40;;
77170;SDS011;66144;50.020;14.422;2023-02-01T16:23:06;6.25;;;1.92;;
77170;SDS011;66144;50.020;14.422;2023-02-01T16:25:33;4.93;;;1.90;;
77170;SDS011;66144;50.020;14.422;2023-02-01T16:27:59;7.45;;;2.22;;
77170;SDS011;66144;50.020;14.422;2023-02-01T16:30:24;4.30;;;1.85;;
77170;SDS011;66144;50.020;14.422;2023-02-01T16:32:53;4.93;;;1.33;;
77170;SDS011;66144;50.020;14.422;2023-02-01T16:37:48;5.25;;;1.80;;
77170;SDS011;66144;50.020;14.422;2023-02-01T16:42:40;5.78;;;1.67;;
77170;SDS011;66144;50.020;14.422;2023-02-01T16:45:06;8.70;;;2.22;;
77170;SDS011;66144;50.020;14.422;2023-02-01T16:47:32;4.43;;;1.50;;
77170;SDS011;66144;50.020;14.422;2023-02-01T16:49:58;5.00;;;1.70;;
77170;SDS011;66144;50.020;14.422;2023-02-01T16:52:24;6.28;;;1.88;;
77170;SDS011;66144;50.020;14.422;2023-02-01T16:54:51;7.95;;;2.20;;
77170;SDS011;66144;50.020;14.422;2023-02-01T16:57:18;4.40;;;1.30;;
77170;SDS011;66144;50.020;14.422;2023-02-01T16:59:47;4.72;;;2.13;;
77170;SDS011;66144;50.020;14.422;2023-02-01T17:02:13;5.93;;;1.90;;
77170;SDS011;66144;50.020;14.422;2023-02-01T17:04:41;4.28;;;1.70;;
77170;SDS011;66144;50.020;14.422;2023-02-01T17:07:10;5.38;;;1.90;;
77170;SDS011;66144;50.020;14.422;2023-02-01T17:09:39;6.18;;;1.95;;
77170;SDS011;66144;50.020;14.422;2023-02-01T17:12:04;6.38;;;2.28;;
77170;SDS011;66144;50.020;14.422;2023-02-01T17:14:31;3.10;;;1.50;;
77170;SDS011;66144;50.020;14.422;2023-02-01T17:16:59;6.57;;;1.60;;
77170;SDS011;66144;50.020;14.422;2023-02-01T17:19:25;4.63;;;1.55;;
77170;SDS011;66144;50.020;14.422;2023-02-01T17:21:51;5.05;;;1.80;;
77170;SDS011;66144;50.020;14.422;2023-02-01T17:24:21;4.25;;;1.60;;
77170;SDS011;66144;50.020;14.422;2023-02-01T17:26:48;5.95;;;2.10;;
77170;SDS011;66144;50.020;14.422;2023-02-01T17:29:16;5.25;;;1.63;;
77170;SDS011;66144;50.020;14.422;2023-02-01T17:31:43;6.43;;;1.83;;
77170;SDS011;66144;50.020;14.422;2023-02-01T17:34:11;5.20;;;1.77;;
77170;SDS011;66144;50.020;14.422;2023-02-01T17:36:39;6.93;;;1.83;;
77170;SDS011;66144;50.020;14.422;2023-02-01T17:39:05;6.10;;;1.70;;
77170;SDS011;66144;50.020;14.422;2023-02-01T17:41:31;5.03;;;1.85;;
77170;SDS011;66144;50.020;14.422;2023-02-01T17:43:57;6.82;;;1.95;;
77170;SDS011;66144;50.020;14.422;2023-02-01T17:46:22;5.68;;;2.22;;
77170;SDS011;66144;50.020;14.422;2023-02-01T17:48:54;5.35;;;1.63;;
77170;SDS011;66144;50.020;14.422;2023-02-01T17:51:20;4.60;;;1.75;;
77170;SDS011;66144;50.020;14.422;2023-02-01T17:53:47;6.13;;;2.08;;
77170;SDS011;66144;50.020;14.422;2023-02-01T17:56:16;4.82;;;1.75;;
77170;SDS011;66144;50.020;14.422;2023-02-01T17:58:47;4.30;;;1.88;;
77170;SDS011;66144;50.020;14.422;2023-02-01T18:01:20;5.53;;;2.08;;
77170;SDS011;66144;50.020;14.422;2023-02-01T18:03:47;4.65;;;1.52;;
77170;SDS011;66144;50.020;14.422;2023-02-01T18:06:31;6.35;;;2.08;;
77170;SDS011;66144;50.020;14.422;2023-02-01T18:08:58;5.68;;;2.10;;
77170;SDS011;66144;50.020;14.422;2023-02-01T18:11:24;3.83;;;1.60;;
77170;SDS011;66144;50.020;14.422;2023-02-01T18:13:51;4.40;;;1.92;;
77170;SDS011;66144;50.020;14.422;2023-02-01T18:16:19;4.13;;;1.65;;
77170;SDS011;66144;50.020;14.422;2023-02-01T18:18:51;3.88;;;1.63;;
77170;SDS011;66144;50.020;14.422;2023-02-01T18:21:18;4.97;;;1.95;;
77170;SDS011;66144;50.020;14.422;2023-02-01T18:23:45;4.78;;;2.30;;
77170;SDS011;66144;50.020;14.422;2023-02-01T18:26:12;3.90;;;1.55;;
77170;SDS011;66144;50.020;14.422;2023-02-01T18:28:39;9.52;;;2.88;;
77170;SDS011;66144;50.020;14.422;2023-02-01T18:31:06;4.90;;;2.10;;
77170;SDS011;66144;50.020;14.422;2023-02-01T18:33:41;4.63;;;1.35;;
77170;SDS011;66144;50.020;14.422;2023-02-01T18:36:08;5.35;;;1.77;;
77170;SDS011;66144;50.020;14.422;2023-02-01T18:38:37;4.40;;;1.50;;
77170;SDS011;66144;50.020;14.422;2023-02-01T18:41:02;3.88;;;2.03;;
77170;SDS011;66144;50.020;14.422;2023-02-01T18:43:29;5.43;;;2.10;;
77170;SDS011;66144;50.020;14.422;2023-02-01T18:45:55;4.05;;;1.38;;
77170;SDS011;66144;50.020;14.422;2023-02-01T18:48:20;5.32;;;1.67;;
77170;SDS011;66144;50.020;14.422;2023-02-01T18:50:46;5.13;;;1.70;;
77170;SDS011;66144;50.020;14.422;2023-02-01T18:53:15;3.38;;;0.90;;
77170;SDS011;66144;50.020;14.422;2023-02-01T18:55:51;1.40;;;0.47;;
77170;SDS011;66144;50.020;14.422;2023-02-01T18:58:17;0.40;;;0.20;;
77170;SDS011;66144;50.020;14.422;2023-02-01T19:00:43;1.33;;;0.50;;
77170;SDS011;66144;50.020;14.422;2023-02-01T19:03:10;0.52;;;0.20;;
77170;SDS011;66144;50.020;14.422;2023-02-01T19:05:36;1.33;;;0.40;;
77170;SDS011;66144;50.020;14.422;2023-02-01T19:08:01;1.98;;;0.30;;
77170;SDS011;66144;50.020;14.422;2023-02-01T19:10:27;0.20;;;0.10;;
77170;SDS011;66144;50.020;14.422;2023-02-01T19:12:52;0.47;;;0.40;;
77170;SDS011;66144;50.020;14.422;2023-02-01T19:15:34;1.15;;;0.20;;
77170;SDS011;66144;50.020;14.422;2023-02-01T19:18:04;1.63;;;0.50;;
77170;SDS011;66144;50.020;14.422;2023-02-01T19:22:55;1.70;;;0.30;;
77170;SDS011;66144;50.020;14.422;2023-02-01T19:27:47;0.70;;;0.35;;
77170;SDS011;66144;50.020;14.422;2023-02-01T19:30:13;2.03;;;0.50;;
77170;SDS011;66144;50.020;14.422;2023-02-01T19:32:39;1.15;;;0.68;;
77170;SDS011;66144;50.020;14.422;2023-02-01T19:37:30;2.15;;;0.60;;
77170;SDS011;66144;50.020;14.422;2023-02-01T19:42:24;1.65;;;0.52;;
77170;SDS011;66144;50.020;14.422;2023-02-01T19:44:50;0.60;;;0.40;;
77170;SDS011;66144;50.020;14.422;2023-02-01T19:49:40;1.50;;;0.50;;
77170;SDS011;66144;50.020;14.422;2023-02-01T19:54:31;1.13;;;0.50;;
77170;SDS011;66144;50.020;14.422;2023-02-01T19:59:22;1.57;;;0.70;;
77170;SDS011;66144;50.020;14.422;2023-02-01T20:04:14;0.93;;;0.60;;
77170;SDS011;66144;50.020;14.422;2023-02-01T20:06:40;1.95;;;0.60;;
77170;SDS011;66144;50.020;14.422;2023-02-01T20:09:14;1.02;;;0.60;;
77170;SDS011;66144;50.020;14.422;2023-02-01T20:11:50;2.55;;;0.90;;
77170;SDS011;66144;50.020;14.422;2023-02-01T20:14:16;1.38;;;0.60;;
77170;SDS011;66144;50.020;14.422;2023-02-01T20:19:07;2.63;;;0.90;;
77170;SDS011;66144;50.020;14.422;2023-02-01T20:21:34;1.52;;;0.63;;
77170;SDS011;66144;50.020;14.422;2023-02-01T20:24:01;1.55;;;0.68;;
77170;SDS011;66144;50.020;14.422;2023-02-01T20:28:52;1.52;;;0.60;;
77170;SDS011;66144;50.020;14.422;2023-02-01T20:31:19;2.88;;;0.70;;
77170;SDS011;66144;50.020;14.422;2023-02-01T20:36:10;3.53;;;1.10;;
77170;SDS011;66144;50.020;14.422;2023-02-01T20:41:05;1.33;;;0.70;;
77170;SDS011;66144;50.020;14.422;2023-02-01T20:43:32;1.30;;;0.70;;
77170;SDS011;66144;50.020;14.422;2023-02-01T20:48:23;2.75;;;0.63;;